Weather reports worldwide

Advertisment
Cazalla de la Sierra, Spain (8392): temperature & dewpoint: 22.01.2020 07:00:00 - 28.01.2020 07:00:00 (CET)Cazalla de la Sierra, Spain (8392): wind speed & gusts: 22.01.2020 07:00:00 - 28.01.2020 07:00:00 (CET)Cazalla de la Sierra, Spain (8392): wind direction: 22.01.2020 07:00:00 - 28.01.2020 07:00:00 (CET)Cazalla de la Sierra, Spain (8392): reduced air pressure: 22.01.2020 07:00:00 - 28.01.2020 07:00:00 (CET)Cazalla de la Sierra, Spain (8392): precipitation: 22.01.2020 07:00:00 - 28.01.2020 07:00:00 (CET)
Date & Time tt [°C] td [°C] ff [km/h] ff [kn] fx [km/h] fx [kn] dd ppp [hPa] rr [mm]
28.01.2020 07:00:00 - - - - - - - - -
28.01.2020 06:00:00 8,7 8,5 0 0 8 4 W 1025,6 0,0
28.01.2020 05:00:00 8,8 8,7 3 2 8 4 W 1025,8 0,0
28.01.2020 04:00:00 8,8 8,7 3 2 9 5 WNW 1026,2 0,0
28.01.2020 03:00:00 9,4 9,3 3 2 9 5 WSW 1026,1 0,0
28.01.2020 02:00:00 9,3 9,2 5 3 9 5 WNW 1026,6 0,0
28.01.2020 01:00:00 9,0 8,8 6 4 14 7 NW 1027,0 -
28.01.2020 00:00:00 8,9 8,7 3 2 8 5 W 1026,7 0,0
27.01.2020 23:00:00 8,9 8,7 1 1 8 4 WNW 1027,2 0,0
27.01.2020 22:00:00 8,8 8,5 1 1 9 5 W 1026,9 0,0
27.01.2020 21:00:00 8,9 8,4 1 0 13 7 WNW 1026,5 0,0
27.01.2020 20:00:00 9,0 8,4 3 2 10 5 WNW 1026,2 0,0
27.01.2020 19:00:00 9,2 8,4 6 3 14 8 W 1025,9 -
27.01.2020 18:00:00 9,7 8,5 4 2 11 6 SW 1025,3 0,0
27.01.2020 17:00:00 9,7 8,1 3 2 15 8 SW 1025,1 0,0
27.01.2020 16:00:00 10,4 8,5 7 4 18 10 W 1025,1 0,0
27.01.2020 15:00:00 9,9 7,8 6 3 18 10 WSW 1025,6 0,0
27.01.2020 14:00:00 9,8 8,4 5 3 13 7 W 1026,1 0,0
27.01.2020 13:00:00 - - - - - - - - -
27.01.2020 12:00:00 7,5 7,4 4 2 11 6 WSW 1028,0 0,0
27.01.2020 11:00:00 7,4 7,1 5 3 11 6 WSW 1027,9 0,0
27.01.2020 10:00:00 4,6 4,5 0 0 2 1 N 1028,3 0,0
27.01.2020 09:00:00 1,3 1,1 0 0 5 3 NW 1029,0 0,0
27.01.2020 08:00:00 1,1 1,1 4 2 6 4 E 1028,3 0,0
27.01.2020 07:00:00 1,0 0,9 2 1 5 3 ESE 1028,4 -
27.01.2020 06:00:00 1,4 1,3 3 1 7 4 SE 1028,0 0,0
27.01.2020 05:00:00 1,3 1,1 2 1 5 3 E 1028,2 0,0
27.01.2020 04:00:00 1,6 1,5 3 2 6 3 ESE 1028,5 0,0
27.01.2020 03:00:00 2,2 1,9 4 2 7 4 ESE 1028,4 0,0
27.01.2020 02:00:00 2,2 1,9 3 1 7 4 ESE 1028,8 0,0
27.01.2020 01:00:00 2,5 2,1 3 2 6 3 ESE 1028,9 -
27.01.2020 00:00:00 3,1 2,5 4 2 6 3 ESE 1029,0 0,0
26.01.2020 23:00:00 4,0 3,4 4 2 7 4 ESE 1028,7 0,0
26.01.2020 22:00:00 4,4 3,6 5 3 6 4 ESE 1028,3 0,0
26.01.2020 21:00:00 4,5 3,2 4 2 7 4 SE 1028,1 0,0
26.01.2020 20:00:00 5,3 3,8 4 2 5 3 ESE 1027,3 0,0
26.01.2020 19:00:00 7,9 3,2 3 1 8 5 WSW 1026,1 -
26.01.2020 18:00:00 12,2 3,2 6 4 17 9 NW 1024,6 0,0
26.01.2020 17:00:00 13,2 3,8 8 4 20 11 WNW 1023,9 0,0
26.01.2020 16:00:00 13,0 3,4 10 5 21 12 WNW 1023,9 0,0
26.01.2020 15:00:00 12,8 3,8 9 5 22 12 WNW 1024,1 0,0
26.01.2020 14:00:00 12,5 5,9 8 4 20 11 NW 1024,8 0,0
26.01.2020 13:00:00 11,5 6,4 13 7 18 10 WNW 1025,8 -
26.01.2020 12:00:00 9,2 7,1 8 4 13 7 W 1026,2 0,0
26.01.2020 11:00:00 7,9 7,1 4 2 7 4 W 1025,9 0,0
26.01.2020 10:00:00 4,8 4,6 0 0 5 3 E 1025,9 0,0
26.01.2020 09:00:00 3,2 2,9 4 2 10 5 ESE 1025,6 0,1
26.01.2020 08:00:00 5,2 4,8 5 3 16 9 N 1024,1 0,0
26.01.2020 07:00:00 5,5 5,3 5 3 15 8 N 1023,4 -
26.01.2020 06:00:00 5,1 5,0 1 1 9 5 NNW 1022,6 0,0
26.01.2020 05:00:00 4,0 3,8 2 1 8 5 SE 1022,9 0,0
26.01.2020 04:00:00 6,3 6,1 2 1 10 5 NE 1022,2 0,0
26.01.2020 03:00:00 4,6 4,5 1 1 8 5 NNW 1022,5 0,1
26.01.2020 02:00:00 4,9 4,8 0 0 0 0 N 1022,0 0,0
26.01.2020 01:00:00 4,2 3,9 0 0 0 0 N 1021,9 -
26.01.2020 00:00:00 5,8 5,5 0 0 0 0 N 1021,1 0,0
25.01.2020 23:00:00 6,4 6,2 0 0 0 0 N 1020,4 0,0
25.01.2020 22:00:00 6,1 5,6 0 0 0 0 N 1019,8 0,0
25.01.2020 21:00:00 7,1 6,8 0 0 0 0 N 1019,1 0,0
25.01.2020 20:00:00 7,1 6,4 0 0 0 0 N 1018,2 0,0
25.01.2020 19:00:00 8,5 7,7 0 0 6 3 W 1017,1 -
25.01.2020 18:00:00 9,2 8,0 1 1 7 4 WSW 1015,9 0,1
25.01.2020 17:00:00 8,8 8,0 3 2 8 4 WSW 1015,9 0,2
25.01.2020 16:00:00 8,8 7,7 4 2 9 5 SSE 1015,6 0,7
25.01.2020 15:00:00 8,8 7,6 1 1 9 5 SSE 1015,4 0,4
25.01.2020 14:00:00 9,7 8,1 4 2 13 7 S 1015,6 0,0
25.01.2020 13:00:00 9,0 8,0 2 1 11 6 SSW 1016,6 -
25.01.2020 12:00:00 8,1 7,6 5 3 14 8 SE 1017,3 0,2
25.01.2020 11:00:00 7,9 7,0 7 4 21 11 SSE 1017,0 0,0
25.01.2020 10:00:00 7,4 6,8 9 5 29 15 SE 1016,5 0,8
25.01.2020 09:00:00 7,7 7,4 3 2 16 8 SSE 1016,0 0,7
25.01.2020 08:00:00 7,5 7,0 2 1 15 8 SSE 1015,7 1,9
25.01.2020 07:00:00 7,6 7,1 6 4 21 12 SSE 1015,6 -
25.01.2020 06:00:00 7,9 7,3 8 4 18 10 SSE 1015,7 4,3
25.01.2020 05:00:00 8,2 7,8 4 2 17 9 SSE 1015,7 1,9
25.01.2020 04:00:00 8,1 8,0 8 4 17 9 SSE 1016,1 0,0
25.01.2020 03:00:00 8,2 7,8 7 4 15 8 SSE 1016,3 0,1
25.01.2020 02:00:00 8,0 7,6 5 3 16 9 SSE 1016,7 0,0
25.01.2020 01:00:00 7,7 7,1 3 2 24 13 S 1017,1 -
25.01.2020 00:00:00 8,2 7,6 6 4 27 15 SSW 1017,3 0,9
24.01.2020 23:00:00 8,2 7,8 11 6 23 13 SSE 1016,9 0,1
24.01.2020 22:00:00 8,1 7,3 18 10 37 20 SE 1016,5 0,7
24.01.2020 21:00:00 7,7 7,0 9 5 21 11 SE 1016,9 2,9
24.01.2020 20:00:00 7,9 7,0 12 6 29 16 ESE 1017,0 3,5
24.01.2020 19:00:00 8,4 7,7 14 8 29 16 SE 1017,1 -
24.01.2020 18:00:00 8,5 7,8 6 3 27 15 SSE 1016,9 2,4
24.01.2020 17:00:00 9,1 8,1 12 7 23 12 ESE 1016,9 1,3
24.01.2020 16:00:00 9,5 8,3 7 4 14 8 E 1017,3 0,1
24.01.2020 15:00:00 10,1 8,4 6 3 16 9 ESE 1017,5 0,5
24.01.2020 14:00:00 11,0 7,7 9 5 20 11 SE 1017,9 0,0
24.01.2020 13:00:00 10,0 7,4 7 4 16 8 ESE 1019,1 -
24.01.2020 12:00:00 8,9 7,7 5 3 13 7 E 1020,3 0,0
24.01.2020 11:00:00 8,1 7,3 7 4 13 7 E 1020,2 0,1
24.01.2020 10:00:00 7,7 7,3 6 3 11 6 E 1019,8 0,0
24.01.2020 09:00:00 7,2 6,7 4 2 11 6 E 1019,4 0,0
24.01.2020 08:00:00 7,4 7,0 4 2 12 7 ESE 1019,2 0,0
24.01.2020 07:00:00 7,4 7,0 5 3 13 7 ESE 1019,2 -
24.01.2020 06:00:00 7,3 6,7 5 3 11 6 ESE 1019,0 0,2
24.01.2020 05:00:00 7,3 6,7 5 3 15 8 SE 1018,8 0,0
24.01.2020 04:00:00 7,1 6,7 4 2 12 7 SE 1019,0 0,0
24.01.2020 03:00:00 7,5 7,1 5 3 16 9 SSE 1018,9 0,2
24.01.2020 02:00:00 7,4 7,1 6 3 17 9 SSE 1019,1 0,2
24.01.2020 01:00:00 7,4 7,0 6 3 17 9 SE 1018,8 -
24.01.2020 00:00:00 7,5 6,8 7 4 16 9 SE 1018,4 0,4
23.01.2020 23:00:00 7,7 7,1 8 4 16 9 ESE 1018,2 2,9
23.01.2020 22:00:00 7,7 7,1 8 4 22 12 SSE 1018,2 3,2
23.01.2020 21:00:00 7,7 7,3 7 4 20 11 ESE 1017,7 1,5
23.01.2020 20:00:00 7,6 7,0 6 3 17 9 SSE 1017,4 1,1
23.01.2020 19:00:00 7,9 7,1 4 2 14 8 SW 1016,9 -
23.01.2020 18:00:00 7,5 7,0 5 3 12 7 E 1016,5 0,7
23.01.2020 17:00:00 7,1 6,5 4 2 9 5 ESE 1016,5 0,9
23.01.2020 16:00:00 7,1 6,5 1 0 21 12 NW 1016,2 4,5
23.01.2020 15:00:00 8,3 7,3 8 4 22 12 ESE 1015,4 1,5
23.01.2020 14:00:00 7,9 7,0 9 5 21 11 ESE 1016,3 0,4
23.01.2020 13:00:00 7,4 6,7 10 5 26 14 ESE 1016,9 -
23.01.2020 12:00:00 7,2 6,7 8 4 21 11 SE 1017,3 2,1
23.01.2020 11:00:00 6,9 6,2 11 6 23 12 SE 1017,3 3,7
23.01.2020 10:00:00 7,0 6,4 6 3 17 9 ESE 1016,7 2,0
23.01.2020 09:00:00 7,0 6,4 9 5 21 11 ESE 1016,1 1,1
23.01.2020 08:00:00 7,0 6,2 7 4 23 12 SE 1015,9 1,1
23.01.2020 07:00:00 6,8 6,2 7 4 17 9 ESE 1015,4 -
23.01.2020 06:00:00 6,8 6,1 5 3 16 9 SE 1015,5 0,2
23.01.2020 05:00:00 6,9 5,9 8 4 18 10 ESE 1015,6 0,5
23.01.2020 04:00:00 7,0 6,2 9 5 19 11 SE 1015,9 1,2
23.01.2020 03:00:00 7,1 6,5 8 4 17 9 ESE 1015,8 1,7
23.01.2020 02:00:00 6,9 6,2 6 4 21 11 ESE 1016,1 0,7
23.01.2020 01:00:00 6,8 6,2 10 5 24 13 SE 1016,4 -
23.01.2020 00:00:00 6,6 5,9 7 4 15 8 ESE 1016,5 1,0
22.01.2020 23:00:00 6,6 5,9 5 3 11 6 ESE 1016,4 0,6
22.01.2020 22:00:00 6,5 5,5 5 3 13 7 SSE 1016,2 0,1
22.01.2020 21:00:00 6,6 5,8 6 3 22 12 SSE 1016,1 1,0
22.01.2020 20:00:00 7,8 5,5 11 6 24 13 SE 1015,5 0,0
22.01.2020 19:00:00 8,0 5,6 9 5 18 10 ESE 1014,7 -
22.01.2020 18:00:00 8,4 5,8 10 6 19 10 E 1014,4 0,0
22.01.2020 17:00:00 8,7 5,9 7 4 16 9 E 1014,1 0,0
22.01.2020 16:00:00 8,6 5,8 8 5 18 10 ESE 1014,1 0,0
22.01.2020 15:00:00 9,1 5,3 7 4 21 11 ESE 1014,3 0,0
22.01.2020 14:00:00 8,2 6,1 8 5 18 10 ESE 1014,9 0,0
22.01.2020 13:00:00 7,3 6,2 7 4 19 11 ESE 1016,0 -
22.01.2020 12:00:00 6,4 5,6 11 6 22 12 ESE 1016,3 1,9
22.01.2020 11:00:00 5,8 5,1 11 6 22 12 ESE 1016,3 1,3
22.01.2020 10:00:00 5,1 4,1 10 5 26 14 ESE 1016,0 0,8
22.01.2020 09:00:00 5,0 4,3 7 4 26 14 SE 1015,6 1,8
22.01.2020 08:00:00 5,3 4,6 11 6 21 11 ESE 1014,8 2,4
22.01.2020 07:00:00 5,0 4,3 5 3 10 6 E 1014,4 -

tt = temperature
td = dewpoint
ff = wind speed
fx = gusts
dd = wind direction
ppp = reduced air pressure
rr = precipitation

Next stations